sensor_id;sensor_type;location;lat;lon;timestamp;P1;durP1;ratioP1;P2;durP2;ratioP2
51616;SDS011;37697;52.588;13.394;2022-09-09T00:09:12;4.37;;;3.80;;
51616;SDS011;37697;52.588;13.394;2022-09-09T00:19:49;4.87;;;4.37;;
51616;SDS011;37697;52.588;13.394;2022-09-09T00:24:54;6.42;;;4.70;;
51616;SDS011;37697;52.588;13.394;2022-09-09T00:30:01;5.83;;;4.00;;
51616;SDS011;37697;52.588;13.394;2022-09-09T00:35:31;5.95;;;4.37;;
51616;SDS011;37697;52.588;13.394;2022-09-09T01:07:54;6.97;;;4.75;;
51616;SDS011;37697;52.588;13.394;2022-09-09T01:18:04;4.83;;;4.33;;
51616;SDS011;37697;52.588;13.394;2022-09-09T01:28:38;4.97;;;4.47;;
51616;SDS011;37697;52.588;13.394;2022-09-09T01:33:40;6.53;;;4.20;;
51616;SDS011;37697;52.588;13.394;2022-09-09T01:43:42;4.65;;;4.17;;
51616;SDS011;37697;52.588;13.394;2022-09-09T01:48:42;4.72;;;4.25;;
51616;SDS011;37697;52.588;13.394;2022-09-09T01:59:01;4.67;;;4.10;;
51616;SDS011;37697;52.588;13.394;2022-09-09T02:04:45;4.55;;;4.05;;
51616;SDS011;37697;52.588;13.394;2022-09-09T02:09:54;4.95;;;4.45;;
51616;SDS011;37697;52.588;13.394;2022-09-09T02:15:05;5.45;;;4.20;;
51616;SDS011;37697;52.588;13.394;2022-09-09T02:20:11;6.35;;;4.40;;
51616;SDS011;37697;52.588;13.394;2022-09-09T02:25:15;5.05;;;4.55;;
51616;SDS011;37697;52.588;13.394;2022-09-09T02:30:18;5.90;;;4.58;;
51616;SDS011;37697;52.588;13.394;2022-09-09T02:35:21;5.08;;;4.58;;
51616;SDS011;37697;52.588;13.394;2022-09-09T02:40:26;6.22;;;5.12;;
51616;SDS011;37697;52.588;13.394;2022-09-09T02:50:48;5.85;;;5.12;;
51616;SDS011;37697;52.588;13.394;2022-09-09T02:55:58;5.65;;;5.15;;
51616;SDS011;37697;52.588;13.394;2022-09-09T03:01:05;5.65;;;4.47;;
51616;SDS011;37697;52.588;13.394;2022-09-09T03:11:07;4.92;;;4.40;;
51616;SDS011;37697;52.588;13.394;2022-09-09T03:16:10;5.17;;;4.67;;
51616;SDS011;37697;52.588;13.394;2022-09-09T03:26:11;4.83;;;4.33;;
51616;SDS011;37697;52.588;13.394;2022-09-09T03:31:14;6.42;;;4.70;;
51616;SDS011;37697;52.588;13.394;2022-09-09T03:41:16;4.47;;;4.03;;
51616;SDS011;37697;52.588;13.394;2022-09-09T03:46:21;5.10;;;4.40;;
51616;SDS011;37697;52.588;13.394;2022-09-09T03:51:24;6.40;;;4.40;;
51616;SDS011;37697;52.588;13.394;2022-09-09T03:56:24;5.20;;;4.25;;
51616;SDS011;37697;52.588;13.394;2022-09-09T04:01:25;5.53;;;4.60;;
51616;SDS011;37697;52.588;13.394;2022-09-09T04:06:26;5.62;;;4.72;;
51616;SDS011;37697;52.588;13.394;2022-09-09T04:11:27;6.30;;;4.33;;
51616;SDS011;37697;52.588;13.394;2022-09-09T04:16:28;5.80;;;5.03;;
51616;SDS011;37697;52.588;13.394;2022-09-09T04:21:30;8.50;;;4.35;;
51616;SDS011;37697;52.588;13.394;2022-09-09T04:26:31;5.00;;;4.25;;
51616;SDS011;37697;52.588;13.394;2022-09-09T04:31:32;4.47;;;4.03;;
51616;SDS011;37697;52.588;13.394;2022-09-09T04:36:34;5.40;;;3.95;;
51616;SDS011;37697;52.588;13.394;2022-09-09T04:41:35;5.43;;;4.00;;
51616;SDS011;37697;52.588;13.394;2022-09-09T04:46:35;4.07;;;3.50;;
51616;SDS011;37697;52.588;13.394;2022-09-09T04:51:36;5.03;;;4.50;;
51616;SDS011;37697;52.588;13.394;2022-09-09T04:56:37;5.77;;;3.90;;
51616;SDS011;37697;52.588;13.394;2022-09-09T05:01:37;5.35;;;4.33;;
51616;SDS011;37697;52.588;13.394;2022-09-09T05:06:38;4.90;;;4.30;;
51616;SDS011;37697;52.588;13.394;2022-09-09T05:16:40;5.53;;;3.87;;
51616;SDS011;37697;52.588;13.394;2022-09-09T05:21:41;5.83;;;4.23;;
51616;SDS011;37697;52.588;13.394;2022-09-09T05:26:42;6.10;;;4.20;;
51616;SDS011;37697;52.588;13.394;2022-09-09T05:31:47;6.87;;;4.45;;
51616;SDS011;37697;52.588;13.394;2022-09-09T05:36:48;6.05;;;4.10;;
51616;SDS011;37697;52.588;13.394;2022-09-09T05:41:49;7.58;;;4.87;;
51616;SDS011;37697;52.588;13.394;2022-09-09T05:46:50;6.03;;;4.60;;
51616;SDS011;37697;52.588;13.394;2022-09-09T05:56:51;8.28;;;4.65;;
51616;SDS011;37697;52.588;13.394;2022-09-09T06:01:53;6.35;;;4.25;;
51616;SDS011;37697;52.588;13.394;2022-09-09T06:06:54;7.83;;;4.80;;
51616;SDS011;37697;52.588;13.394;2022-09-09T06:11:55;5.78;;;4.25;;
51616;SDS011;37697;52.588;13.394;2022-09-09T06:16:57;5.43;;;3.97;;
51616;SDS011;37697;52.588;13.394;2022-09-09T06:21:58;4.53;;;3.53;;
51616;SDS011;37697;52.588;13.394;2022-09-09T06:26:59;5.63;;;3.27;;
51616;SDS011;37697;52.588;13.394;2022-09-09T06:32:00;6.95;;;3.12;;
51616;SDS011;37697;52.588;13.394;2022-09-09T06:42:02;4.60;;;2.20;;
51616;SDS011;37697;52.588;13.394;2022-09-09T06:47:04;5.67;;;2.83;;
51616;SDS011;37697;52.588;13.394;2022-09-09T06:52:05;6.17;;;3.05;;
51616;SDS011;37697;52.588;13.394;2022-09-09T06:57:06;7.40;;;3.27;;
51616;SDS011;37697;52.588;13.394;2022-09-09T07:02:07;6.25;;;3.60;;
51616;SDS011;37697;52.588;13.394;2022-09-09T07:07:08;5.47;;;3.00;;
51616;SDS011;37697;52.588;13.394;2022-09-09T07:12:10;7.90;;;3.17;;
51616;SDS011;37697;52.588;13.394;2022-09-09T07:17:13;5.75;;;3.50;;
51616;SDS011;37697;52.588;13.394;2022-09-09T07:22:14;5.05;;;2.90;;
51616;SDS011;37697;52.588;13.394;2022-09-09T07:27:16;7.15;;;3.20;;
51616;SDS011;37697;52.588;13.394;2022-09-09T07:32:17;5.58;;;2.90;;
51616;SDS011;37697;52.588;13.394;2022-09-09T07:37:18;5.20;;;2.52;;
51616;SDS011;37697;52.588;13.394;2022-09-09T07:42:19;6.75;;;2.90;;
51616;SDS011;37697;52.588;13.394;2022-09-09T07:47:19;7.08;;;2.87;;
51616;SDS011;37697;52.588;13.394;2022-09-09T07:57:21;6.08;;;2.12;;
51616;SDS011;37697;52.588;13.394;2022-09-09T08:12:25;2.90;;;1.42;;
51616;SDS011;37697;52.588;13.394;2022-09-09T08:17:25;6.50;;;1.80;;
51616;SDS011;37697;52.588;13.394;2022-09-09T08:22:26;5.22;;;2.00;;
51616;SDS011;37697;52.588;13.394;2022-09-09T08:27:28;3.80;;;1.98;;
51616;SDS011;37697;52.588;13.394;2022-09-09T08:32:28;3.23;;;1.50;;
51616;SDS011;37697;52.588;13.394;2022-09-09T08:42:40;5.10;;;1.97;;
51616;SDS011;37697;52.588;13.394;2022-09-09T08:53:23;5.05;;;1.30;;
51616;SDS011;37697;52.588;13.394;2022-09-09T08:58:31;4.70;;;1.30;;
51616;SDS011;37697;52.588;13.394;2022-09-09T09:03:38;5.50;;;1.22;;
51616;SDS011;37697;52.588;13.394;2022-09-09T09:14:34;5.00;;;1.50;;
51616;SDS011;37697;52.588;13.394;2022-09-09T09:19:38;3.77;;;1.25;;
51616;SDS011;37697;52.588;13.394;2022-09-09T09:24:44;4.12;;;1.40;;
51616;SDS011;37697;52.588;13.394;2022-09-09T09:30:06;4.97;;;1.50;;
51616;SDS011;37697;52.588;13.394;2022-09-09T09:35:17;5.83;;;1.50;;
51616;SDS011;37697;52.588;13.394;2022-09-09T09:40:20;4.90;;;1.37;;
51616;SDS011;37697;52.588;13.394;2022-09-09T09:45:26;3.30;;;1.30;;
51616;SDS011;37697;52.588;13.394;2022-09-09T09:50:33;5.30;;;1.67;;
51616;SDS011;37697;52.588;13.394;2022-09-09T09:55:35;5.65;;;2.02;;
51616;SDS011;37697;52.588;13.394;2022-09-09T10:00:37;4.30;;;1.80;;
51616;SDS011;37697;52.588;13.394;2022-09-09T10:05:50;3.37;;;1.37;;
51616;SDS011;37697;52.588;13.394;2022-09-09T10:16:25;2.65;;;0.90;;
51616;SDS011;37697;52.588;13.394;2022-09-09T10:22:23;2.93;;;1.10;;
51616;SDS011;37697;52.588;13.394;2022-09-09T10:33:20;3.77;;;1.20;;
51616;SDS011;37697;52.588;13.394;2022-09-09T10:38:41;3.58;;;1.30;;
51616;SDS011;37697;52.588;13.394;2022-09-09T10:55:00;4.95;;;1.40;;
51616;SDS011;37697;52.588;13.394;2022-09-09T11:00:22;2.22;;;0.88;;
51616;SDS011;37697;52.588;13.394;2022-09-09T11:05:40;3.83;;;0.90;;
51616;SDS011;37697;52.588;13.394;2022-09-09T11:16:27;1.98;;;0.82;;
51616;SDS011;37697;52.588;13.394;2022-09-09T11:21:56;2.83;;;0.90;;
51616;SDS011;37697;52.588;13.394;2022-09-09T11:27:03;4.45;;;0.70;;
51616;SDS011;37697;52.588;13.394;2022-09-09T11:38:16;1.77;;;0.80;;
51616;SDS011;37697;52.588;13.394;2022-09-09T11:44:09;3.40;;;1.00;;
51616;SDS011;37697;52.588;13.394;2022-09-09T11:48:33;2.10;;;0.75;;
51616;SDS011;37697;52.588;13.394;2022-09-09T11:58:57;4.53;;;1.10;;
51616;SDS011;37697;52.588;13.394;2022-09-09T12:04:27;3.87;;;1.12;;
51616;SDS011;37697;52.588;13.394;2022-09-09T12:09:33;3.85;;;0.75;;
51616;SDS011;37697;52.588;13.394;2022-09-09T12:20:19;2.55;;;1.10;;
51616;SDS011;37697;52.588;13.394;2022-09-09T12:25:34;3.75;;;0.85;;
51616;SDS011;37697;52.588;13.394;2022-09-09T12:30:49;2.92;;;0.70;;
51616;SDS011;37697;52.588;13.394;2022-09-09T12:36:15;1.87;;;0.60;;
51616;SDS011;37697;52.588;13.394;2022-09-09T12:41:23;3.42;;;0.85;;
51616;SDS011;37697;52.588;13.394;2022-09-09T12:46:33;2.75;;;0.80;;
51616;SDS011;37697;52.588;13.394;2022-09-09T12:51:40;2.62;;;0.68;;
51616;SDS011;37697;52.588;13.394;2022-09-09T12:56:45;4.05;;;0.70;;
51616;SDS011;37697;52.588;13.394;2022-09-09T13:01:54;2.37;;;0.80;;
51616;SDS011;37697;52.588;13.394;2022-09-09T13:07:07;2.77;;;1.10;;
51616;SDS011;37697;52.588;13.394;2022-09-09T13:12:14;3.15;;;0.72;;
51616;SDS011;37697;52.588;13.394;2022-09-09T13:17:20;3.75;;;0.90;;
51616;SDS011;37697;52.588;13.394;2022-09-09T13:22:29;3.27;;;0.80;;
51616;SDS011;37697;52.588;13.394;2022-09-09T13:27:35;2.87;;;0.93;;
51616;SDS011;37697;52.588;13.394;2022-09-09T13:32:38;2.55;;;0.80;;
51616;SDS011;37697;52.588;13.394;2022-09-09T13:37:39;2.72;;;0.82;;
51616;SDS011;37697;52.588;13.394;2022-09-09T13:42:41;2.15;;;0.70;;
51616;SDS011;37697;52.588;13.394;2022-09-09T13:47:43;3.87;;;0.80;;
51616;SDS011;37697;52.588;13.394;2022-09-09T13:52:45;2.55;;;0.60;;
51616;SDS011;37697;52.588;13.394;2022-09-09T13:57:55;3.08;;;1.07;;
51616;SDS011;37697;52.588;13.394;2022-09-09T14:02:58;3.30;;;0.80;;
51616;SDS011;37697;52.588;13.394;2022-09-09T14:08:04;2.62;;;0.88;;
51616;SDS011;37697;52.588;13.394;2022-09-09T14:13:07;2.83;;;0.78;;
51616;SDS011;37697;52.588;13.394;2022-09-09T14:18:11;2.90;;;0.68;;
51616;SDS011;37697;52.588;13.394;2022-09-09T14:23:14;4.97;;;1.07;;
51616;SDS011;37697;52.588;13.394;2022-09-09T14:28:16;2.85;;;0.88;;
51616;SDS011;37697;52.588;13.394;2022-09-09T14:33:17;2.60;;;0.80;;
51616;SDS011;37697;52.588;13.394;2022-09-09T14:38:17;5.08;;;1.20;;
51616;SDS011;37697;52.588;13.394;2022-09-09T14:43:18;4.17;;;0.70;;
51616;SDS011;37697;52.588;13.394;2022-09-09T14:48:20;2.77;;;0.85;;
51616;SDS011;37697;52.588;13.394;2022-09-09T14:53:21;3.75;;;0.80;;
51616;SDS011;37697;52.588;13.394;2022-09-09T14:58:21;2.30;;;0.70;;
51616;SDS011;37697;52.588;13.394;2022-09-09T15:03:22;3.25;;;1.25;;
51616;SDS011;37697;52.588;13.394;2022-09-09T15:53:27;3.20;;;0.90;;
51616;SDS011;37697;52.588;13.394;2022-09-09T15:58:30;4.87;;;1.37;;
51616;SDS011;37697;52.588;13.394;2022-09-09T16:03:35;3.75;;;0.90;;
51616;SDS011;37697;52.588;13.394;2022-09-09T16:08:39;3.42;;;1.00;;
51616;SDS011;37697;52.588;13.394;2022-09-09T16:13:43;2.33;;;0.90;;
51616;SDS011;37697;52.588;13.394;2022-09-09T16:18:47;3.22;;;1.00;;
51616;SDS011;37697;52.588;13.394;2022-09-09T16:23:50;3.95;;;1.20;;
51616;SDS011;37697;52.588;13.394;2022-09-09T16:28:53;2.40;;;0.95;;
51616;SDS011;37697;52.588;13.394;2022-09-09T16:33:58;3.12;;;0.90;;
51616;SDS011;37697;52.588;13.394;2022-09-09T16:39:00;3.45;;;0.90;;
51616;SDS011;37697;52.588;13.394;2022-09-09T16:44:06;2.33;;;1.00;;
51616;SDS011;37697;52.588;13.394;2022-09-09T16:49:11;2.05;;;1.15;;
51616;SDS011;37697;52.588;13.394;2022-09-09T16:54:16;2.60;;;1.00;;
51616;SDS011;37697;52.588;13.394;2022-09-09T16:59:19;3.30;;;1.30;;
51616;SDS011;37697;52.588;13.394;2022-09-09T17:04:24;1.22;;;0.80;;
51616;SDS011;37697;52.588;13.394;2022-09-09T17:09:27;3.45;;;1.27;;
51616;SDS011;37697;52.588;13.394;2022-09-09T17:14:29;3.02;;;1.10;;
51616;SDS011;37697;52.588;13.394;2022-09-09T17:19:31;3.00;;;1.10;;
51616;SDS011;37697;52.588;13.394;2022-09-09T17:24:32;2.98;;;1.37;;
51616;SDS011;37697;52.588;13.394;2022-09-09T17:29:34;4.47;;;1.67;;
51616;SDS011;37697;52.588;13.394;2022-09-09T17:34:36;5.45;;;1.60;;
51616;SDS011;37697;52.588;13.394;2022-09-09T17:39:38;3.40;;;1.50;;
51616;SDS011;37697;52.588;13.394;2022-09-09T17:44:38;4.37;;;1.70;;
51616;SDS011;37697;52.588;13.394;2022-09-09T17:49:40;5.45;;;1.60;;
51616;SDS011;37697;52.588;13.394;2022-09-09T17:54:40;3.33;;;1.20;;
51616;SDS011;37697;52.588;13.394;2022-09-09T17:59:41;3.65;;;1.10;;
51616;SDS011;37697;52.588;13.394;2022-09-09T18:04:42;2.15;;;0.90;;
51616;SDS011;37697;52.588;13.394;2022-09-09T18:14:44;3.98;;;0.90;;
51616;SDS011;37697;52.588;13.394;2022-09-09T18:19:44;2.77;;;0.82;;
51616;SDS011;37697;52.588;13.394;2022-09-09T18:24:45;1.72;;;0.90;;
51616;SDS011;37697;52.588;13.394;2022-09-09T18:29:47;3.40;;;1.02;;
51616;SDS011;37697;52.588;13.394;2022-09-09T18:34:48;2.75;;;1.02;;
51616;SDS011;37697;52.588;13.394;2022-09-09T18:39:50;11.20;;;7.95;;
51616;SDS011;37697;52.588;13.394;2022-09-09T18:44:52;5.78;;;3.62;;
51616;SDS011;37697;52.588;13.394;2022-09-09T18:49:52;5.15;;;1.80;;
51616;SDS011;37697;52.588;13.394;2022-09-09T18:59:54;2.97;;;1.50;;
51616;SDS011;37697;52.588;13.394;2022-09-09T19:04:54;4.58;;;1.50;;
51616;SDS011;37697;52.588;13.394;2022-09-09T19:09:57;2.77;;;1.35;;
51616;SDS011;37697;52.588;13.394;2022-09-09T19:19:58;4.15;;;1.62;;
51616;SDS011;37697;52.588;13.394;2022-09-09T19:24:59;2.77;;;1.20;;
51616;SDS011;37697;52.588;13.394;2022-09-09T19:30:02;2.80;;;1.30;;
51616;SDS011;37697;52.588;13.394;2022-09-09T19:35:04;3.00;;;1.25;;
51616;SDS011;37697;52.588;13.394;2022-09-09T19:40:06;4.72;;;1.37;;
51616;SDS011;37697;52.588;13.394;2022-09-09T19:45:07;3.10;;;1.60;;
51616;SDS011;37697;52.588;13.394;2022-09-09T19:50:09;3.58;;;1.80;;
51616;SDS011;37697;52.588;13.394;2022-09-09T19:55:10;5.47;;;1.47;;
51616;SDS011;37697;52.588;13.394;2022-09-09T20:00:11;4.17;;;1.17;;
51616;SDS011;37697;52.588;13.394;2022-09-09T20:05:12;2.05;;;1.05;;
51616;SDS011;37697;52.588;13.394;2022-09-09T20:10:14;2.58;;;1.20;;
51616;SDS011;37697;52.588;13.394;2022-09-09T20:15:15;5.10;;;1.50;;
51616;SDS011;37697;52.588;13.394;2022-09-09T20:20:15;4.22;;;2.35;;
51616;SDS011;37697;52.588;13.394;2022-09-09T20:25:16;4.83;;;3.08;;
51616;SDS011;37697;52.588;13.394;2022-09-09T20:30:17;4.75;;;2.87;;
51616;SDS011;37697;52.588;13.394;2022-09-09T20:35:18;5.20;;;3.05;;
51616;SDS011;37697;52.588;13.394;2022-09-09T20:40:19;4.45;;;2.60;;
51616;SDS011;37697;52.588;13.394;2022-09-09T20:45:19;4.47;;;2.30;;
51616;SDS011;37697;52.588;13.394;2022-09-09T20:50:20;3.72;;;1.70;;
51616;SDS011;37697;52.588;13.394;2022-09-09T20:55:21;3.15;;;1.77;;
51616;SDS011;37697;52.588;13.394;2022-09-09T21:05:22;3.15;;;1.50;;
51616;SDS011;37697;52.588;13.394;2022-09-09T21:10:25;4.25;;;1.40;;
51616;SDS011;37697;52.588;13.394;2022-09-09T21:15:26;1.95;;;1.10;;
51616;SDS011;37697;52.588;13.394;2022-09-09T21:25:27;4.03;;;1.42;;
51616;SDS011;37697;52.588;13.394;2022-09-09T21:30:28;2.75;;;1.50;;
51616;SDS011;37697;52.588;13.394;2022-09-09T21:35:29;4.50;;;2.02;;
51616;SDS011;37697;52.588;13.394;2022-09-09T21:40:36;3.62;;;1.17;;
51616;SDS011;37697;52.588;13.394;2022-09-09T21:45:38;2.75;;;1.40;;
51616;SDS011;37697;52.588;13.394;2022-09-09T21:50:45;3.60;;;1.30;;
51616;SDS011;37697;52.588;13.394;2022-09-09T21:55:44;4.70;;;1.80;;
51616;SDS011;37697;52.588;13.394;2022-09-09T22:00:46;2.95;;;1.40;;
51616;SDS011;37697;52.588;13.394;2022-09-09T22:05:47;3.12;;;1.37;;
51616;SDS011;37697;52.588;13.394;2022-09-09T22:10:47;2.25;;;1.30;;
51616;SDS011;37697;52.588;13.394;2022-09-09T22:15:48;2.98;;;1.30;;
51616;SDS011;37697;52.588;13.394;2022-09-09T22:25:51;2.47;;;1.00;;
51616;SDS011;37697;52.588;13.394;2022-09-09T22:30:53;2.15;;;1.00;;
51616;SDS011;37697;52.588;13.394;2022-09-09T22:35:54;2.50;;;1.30;;
51616;SDS011;37697;52.588;13.394;2022-09-09T22:40:55;2.98;;;1.05;;
51616;SDS011;37697;52.588;13.394;2022-09-09T22:45:56;3.02;;;1.30;;
51616;SDS011;37697;52.588;13.394;2022-09-09T22:51:00;3.37;;;1.30;;
51616;SDS011;37697;52.588;13.394;2022-09-09T22:56:07;2.80;;;1.30;;
51616;SDS011;37697;52.588;13.394;2022-09-09T23:01:17;4.12;;;1.47;;
51616;SDS011;37697;52.588;13.394;2022-09-09T23:06:20;4.08;;;1.60;;
51616;SDS011;37697;52.588;13.394;2022-09-09T23:11:25;2.45;;;1.50;;
51616;SDS011;37697;52.588;13.394;2022-09-09T23:16:35;4.65;;;2.08;;
51616;SDS011;37697;52.588;13.394;2022-09-09T23:21:39;2.37;;;1.40;;
51616;SDS011;37697;52.588;13.394;2022-09-09T23:31:43;1.92;;;1.07;;
51616;SDS011;37697;52.588;13.394;2022-09-09T23:36:46;3.10;;;1.25;;
51616;SDS011;37697;52.588;13.394;2022-09-09T23:46:49;3.45;;;1.47;;
51616;SDS011;37697;52.588;13.394;2022-09-09T23:56:50;3.42;;;1.50;;
